createdAt,value
2022-09-22T00:01:20.598Z,99.90
2022-09-22T00:03:50.722Z,99.90
2022-09-22T00:06:20.557Z,99.90
2022-09-22T00:08:50.717Z,99.90
2022-09-22T00:11:21.990Z,99.90
2022-09-22T00:13:53.083Z,99.90
2022-09-22T00:16:23.147Z,99.90
2022-09-22T00:18:51.329Z,99.90
2022-09-22T00:21:21.655Z,99.90
2022-09-22T00:23:50.088Z,99.90
2022-09-22T00:26:23.024Z,99.90
2022-09-22T00:28:53.041Z,99.90
2022-09-22T00:31:23.993Z,99.90
2022-09-22T00:33:53.030Z,99.90
2022-09-22T00:36:24.156Z,99.90
2022-09-22T00:38:52.592Z,99.90
2022-09-22T00:41:24.027Z,99.90
2022-09-22T00:44:12.773Z,99.90
2022-09-22T00:46:42.558Z,99.90
2022-09-22T00:49:11.742Z,99.90
2022-09-22T00:51:42.746Z,99.90
2022-09-22T00:54:15.179Z,99.90
2022-09-22T00:56:49.302Z,99.90
2022-09-22T00:59:20.588Z,99.90
2022-09-22T01:01:49.093Z,99.90
2022-09-22T01:04:17.206Z,99.90
2022-09-22T01:06:46.319Z,99.90
2022-09-22T01:09:14.909Z,99.90
2022-09-22T01:11:44.652Z,99.90
2022-09-22T01:14:22.051Z,99.90
2022-09-22T01:16:56.520Z,99.90
2022-09-22T01:19:45.962Z,99.90
2022-09-22T01:22:25.141Z,99.90
2022-09-22T01:25:17.779Z,99.90
2022-09-22T01:28:15.087Z,99.90
2022-09-22T01:30:46.606Z,99.90
2022-09-22T01:33:34.913Z,99.90
2022-09-22T01:36:11.807Z,99.90
2022-09-22T01:38:46.643Z,99.90
2022-09-22T01:41:20.739Z,99.90
2022-09-22T01:43:52.544Z,99.90
2022-09-22T01:46:28.003Z,99.90
2022-09-22T01:48:58.545Z,99.90
2022-09-22T01:51:30.673Z,99.90
2022-09-22T01:54:03.194Z,99.90
2022-09-22T01:56:34.477Z,99.90
2022-09-22T01:59:06.576Z,99.90
2022-09-22T02:01:40.359Z,99.90
2022-09-22T02:04:15.393Z,99.90
2022-09-22T02:06:47.296Z,99.90
2022-09-22T02:09:19.626Z,99.90
2022-09-22T02:11:47.704Z,99.90
2022-09-22T02:14:16.278Z,99.90
2022-09-22T02:16:45.671Z,99.90
2022-09-22T02:19:19.383Z,99.90
2022-09-22T02:21:49.436Z,99.90
2022-09-22T02:24:31.631Z,99.90
2022-09-22T02:27:01.372Z,99.90
2022-09-22T02:29:32.353Z,99.90
2022-09-22T02:32:05.704Z,99.90
2022-09-22T02:34:33.908Z,99.90
2022-09-22T02:37:07.499Z,99.90
2022-09-22T02:39:42.623Z,99.90
2022-09-22T02:42:27.325Z,99.90
2022-09-22T02:45:01.262Z,99.90
2022-09-22T02:47:36.429Z,99.90
2022-09-22T02:50:09.091Z,99.90
2022-09-22T02:52:38.826Z,99.90
2022-09-22T02:55:07.985Z,99.90
2022-09-22T02:57:35.921Z,99.90
2022-09-22T03:00:05.147Z,99.90
2022-09-22T03:02:34.326Z,99.90
2022-09-22T03:05:02.468Z,99.90
2022-09-22T03:07:30.438Z,99.90
2022-09-22T03:09:58.310Z,99.90
2022-09-22T03:12:26.268Z,99.90
2022-09-22T03:14:54.092Z,99.90
2022-09-22T03:17:21.969Z,99.90
2022-09-22T03:19:51.168Z,99.90
2022-09-22T03:22:19.032Z,99.90
2022-09-22T03:24:46.852Z,99.90
2022-09-22T03:27:14.768Z,99.90
2022-09-22T03:29:42.610Z,99.90
2022-09-22T03:32:10.653Z,99.90
2022-09-22T03:34:38.507Z,99.90
2022-09-22T03:37:07.793Z,99.90
2022-09-22T03:39:35.641Z,99.90
2022-09-22T03:42:03.480Z,99.90
2022-09-22T03:44:31.714Z,99.90
2022-09-22T03:47:00.113Z,99.90
2022-09-22T03:49:28.326Z,99.90
2022-09-22T03:51:56.207Z,99.90
2022-09-22T03:54:25.778Z,99.90
2022-09-22T03:56:53.777Z,99.90
2022-09-22T03:59:21.664Z,99.90
2022-09-22T04:01:49.795Z,99.90
2022-09-22T04:04:19.026Z,99.90
2022-09-22T04:06:46.855Z,99.90
2022-09-22T04:09:17.558Z,99.90
2022-09-22T04:11:46.798Z,99.90
2022-09-22T04:14:14.856Z,99.90
2022-09-22T04:16:43.088Z,99.90
2022-09-22T04:19:11.047Z,99.90
2022-09-22T04:21:39.059Z,99.90
2022-09-22T04:24:11.215Z,99.90
2022-09-22T04:26:47.703Z,99.90
2022-09-22T04:29:25.799Z,99.90
2022-09-22T04:31:53.644Z,99.90
2022-09-22T04:34:21.506Z,99.90
2022-09-22T04:36:49.736Z,99.90
2022-09-22T04:39:22.966Z,99.90
2022-09-22T04:41:51.627Z,99.90
2022-09-22T04:44:19.454Z,99.90
2022-09-22T04:46:49.543Z,99.90
2022-09-22T04:49:17.457Z,99.90
2022-09-22T04:51:45.485Z,99.90
2022-09-22T04:54:14.775Z,99.90
2022-09-22T04:56:42.676Z,99.90
2022-09-22T04:59:11.775Z,99.90
2022-09-22T05:01:39.973Z,99.90
2022-09-22T05:04:09.301Z,99.90
2022-09-22T05:06:37.344Z,99.90
2022-09-22T05:09:05.747Z,99.90
2022-09-22T05:11:34.198Z,99.90
2022-09-22T05:14:02.581Z,99.90
2022-09-22T05:16:31.200Z,99.90
2022-09-22T05:18:59.410Z,99.90
2022-09-22T05:21:28.783Z,99.90
2022-09-22T05:23:56.574Z,99.90
2022-09-22T05:26:24.614Z,99.90
2022-09-22T05:28:52.441Z,99.90
2022-09-22T05:31:20.346Z,99.90
2022-09-22T05:33:48.377Z,99.90
2022-09-22T05:36:16.392Z,99.90
2022-09-22T05:38:45.559Z,99.90
2022-09-22T05:41:13.430Z,99.90
2022-09-22T05:43:41.400Z,99.90
2022-09-22T05:46:09.353Z,99.90
2022-09-22T05:48:37.223Z,99.90
2022-09-22T05:51:05.200Z,99.90
2022-09-22T05:53:33.003Z,99.90
2022-09-22T05:56:03.094Z,99.90
2022-09-22T05:58:30.922Z,99.90
2022-09-22T06:00:59.081Z,99.90
2022-09-22T06:03:27.025Z,99.90
2022-09-22T06:05:55.213Z,99.90
2022-09-22T06:08:23.046Z,99.90
2022-09-22T06:10:51.326Z,99.90
2022-09-22T06:13:20.596Z,99.90
2022-09-22T06:15:49.147Z,99.90
2022-09-22T06:18:24.201Z,99.90
2022-09-22T06:20:56.231Z,99.90
2022-09-22T06:23:24.267Z,99.90
2022-09-22T06:25:57.935Z,99.90
2022-09-22T06:28:27.304Z,99.90
2022-09-22T06:31:00.432Z,99.90
2022-09-22T06:33:28.351Z,99.90
2022-09-22T06:35:58.028Z,99.90
2022-09-22T06:38:25.949Z,99.90
2022-09-22T06:40:54.014Z,99.90
2022-09-22T06:43:23.469Z,99.90
2022-09-22T06:45:53.468Z,99.90
2022-09-22T06:48:25.960Z,99.90
2022-09-22T06:50:55.119Z,99.90
2022-09-22T06:53:27.164Z,99.90
2022-09-22T06:55:55.379Z,99.90
2022-09-22T06:58:24.019Z,99.90
2022-09-22T07:00:53.821Z,99.90
2022-09-22T07:03:24.236Z,99.90
2022-09-22T07:05:56.360Z,99.90
2022-09-22T07:08:25.348Z,99.90
2022-09-22T07:10:54.920Z,99.90
2022-09-22T07:13:22.813Z,99.90
2022-09-22T07:15:51.217Z,99.90
2022-09-22T07:18:20.491Z,99.90
2022-09-22T07:20:48.320Z,99.90
2022-09-22T07:23:18.952Z,99.90
2022-09-22T07:25:57.070Z,99.90
2022-09-22T07:28:28.576Z,99.90
2022-09-22T07:30:58.139Z,99.90
2022-09-22T07:33:27.601Z,99.90
2022-09-22T07:36:08.860Z,99.90
2022-09-22T07:38:37.186Z,99.90
2022-09-22T07:41:06.878Z,99.90
2022-09-22T07:43:35.394Z,99.90
2022-09-22T07:46:04.267Z,99.90
2022-09-22T07:48:45.569Z,99.90
2022-09-22T07:51:18.212Z,99.90
2022-09-22T07:53:47.440Z,99.90
2022-09-22T07:56:18.428Z,99.90
2022-09-22T07:58:50.220Z,99.90
2022-09-22T08:01:19.935Z,99.90
2022-09-22T08:03:49.170Z,99.90
2022-09-22T08:06:19.940Z,99.90
2022-09-22T08:08:52.317Z,99.90
2022-09-22T08:11:21.752Z,99.90
2022-09-22T08:13:52.714Z,99.90
2022-09-22T08:16:22.724Z,99.90
2022-09-22T08:18:56.430Z,99.90
2022-09-22T08:21:24.633Z,99.90
2022-09-22T08:23:53.106Z,99.90
2022-09-22T08:26:22.008Z,99.90
2022-09-22T08:28:53.091Z,99.90
2022-09-22T08:31:21.826Z,99.90
2022-09-22T08:33:51.912Z,99.90
2022-09-22T08:36:21.520Z,99.90
2022-09-22T08:38:49.611Z,99.90
2022-09-22T08:41:22.479Z,99.90
2022-09-22T08:43:55.103Z,99.90
2022-09-22T08:46:27.386Z,99.90
2022-09-22T08:49:17.147Z,99.90
2022-09-22T08:51:53.070Z,99.90
2022-09-22T08:54:21.543Z,99.90
2022-09-22T08:56:58.626Z,99.90
2022-09-22T08:59:34.582Z,99.90
2022-09-22T09:02:20.042Z,99.90
2022-09-22T09:05:11.974Z,99.90
2022-09-22T09:07:57.970Z,99.90
2022-09-22T09:10:39.152Z,99.90
2022-09-22T09:13:25.114Z,99.90
2022-09-22T09:16:04.100Z,99.90
2022-09-22T09:18:35.427Z,99.90
2022-09-22T09:21:07.356Z,99.90
2022-09-22T09:26:32.138Z,99.90
2022-09-22T09:29:04.022Z,99.90
2022-09-22T09:31:36.447Z,99.90
2022-09-22T09:34:07.629Z,99.90
2022-09-22T09:36:38.935Z,99.00
2022-09-22T09:39:15.739Z,97.80
2022-09-22T09:41:46.806Z,97.70
2022-09-22T09:44:22.651Z,96.80
2022-09-22T09:46:58.472Z,96.70
2022-09-22T09:49:26.333Z,98.50
2022-09-22T09:51:56.471Z,98.40
2022-09-22T09:54:27.428Z,98.40
2022-09-22T09:57:08.381Z,95.90
2022-09-22T09:59:54.774Z,96.00
2022-09-22T10:02:27.274Z,96.50
2022-09-22T10:04:57.721Z,94.40
2022-09-22T10:07:28.704Z,95.20
2022-09-22T10:10:24.694Z,93.80
2022-09-22T10:12:52.539Z,94.90
2022-09-22T10:15:25.909Z,94.30
2022-09-22T10:17:53.744Z,94.80
2022-09-22T10:20:24.736Z,94.40
2022-09-22T10:22:52.888Z,94.90
2022-09-22T10:25:24.634Z,93.60
2022-09-22T10:28:06.926Z,91.90
2022-09-22T10:30:37.597Z,92.70
2022-09-22T10:33:15.331Z,92.90
2022-09-22T10:35:45.282Z,93.30
2022-09-22T10:38:18.694Z,91.60
2022-09-22T10:40:50.802Z,91.10
2022-09-22T10:43:38.015Z,91.20
2022-09-22T10:46:29.069Z,91.00
2022-09-22T10:49:05.533Z,90.10
2022-09-22T10:51:45.784Z,88.00
2022-09-22T10:54:23.519Z,89.20
2022-09-22T10:56:56.698Z,88.70
2022-09-22T10:59:38.920Z,86.70
2022-09-22T11:02:35.578Z,85.30
2022-09-22T11:05:42.532Z,85.60
2022-09-22T11:08:30.974Z,85.70
2022-09-22T11:11:22.152Z,84.00
2022-09-22T11:14:07.661Z,83.10
2022-09-22T11:16:47.538Z,83.70
2022-09-22T11:19:41.852Z,82.30
2022-09-22T11:22:28.360Z,81.60
2022-09-22T11:25:06.660Z,80.20
2022-09-22T11:27:46.271Z,78.00
2022-09-22T11:30:20.618Z,73.50
2022-09-22T11:33:13.746Z,67.70
2022-09-22T11:36:01.035Z,63.80
2022-09-22T11:38:49.838Z,59.90
2022-09-22T11:41:30.250Z,54.30
2022-09-22T11:44:40.058Z,49.70
2022-09-22T11:47:39.733Z,46.40
2022-09-22T11:50:31.764Z,45.00
2022-09-22T11:53:26.040Z,41.70
2022-09-22T11:56:04.927Z,37.60
2022-09-22T11:58:34.522Z,37.70
2022-09-22T12:01:12.349Z,37.50
2022-09-22T12:03:47.476Z,37.40
2022-09-22T12:06:17.902Z,34.70
2022-09-22T12:08:49.881Z,32.40
2022-09-22T12:11:20.278Z,33.00
2022-09-22T12:13:51.051Z,32.50
2022-09-22T12:16:24.320Z,31.00
2022-09-22T12:18:59.541Z,28.60
2022-09-22T12:21:43.031Z,27.50
2022-09-22T12:24:12.699Z,28.20
2022-09-22T12:26:48.762Z,27.40
2022-09-22T12:29:27.112Z,28.40
2022-09-22T12:31:57.321Z,27.20
2022-09-22T12:34:35.241Z,26.70
2022-09-22T12:37:11.623Z,27.30
2022-09-22T12:39:45.197Z,27.60
2022-09-22T12:42:22.355Z,27.30
2022-09-22T12:44:54.090Z,27.60
2022-09-22T12:47:29.511Z,27.00
2022-09-22T12:50:00.032Z,26.80
2022-09-22T12:53:05.252Z,26.20
2022-09-22T12:55:39.321Z,27.30
2022-09-22T12:58:41.530Z,26.40
2022-09-22T13:01:33.218Z,26.90
2022-09-22T13:04:17.197Z,26.20
2022-09-22T13:06:58.943Z,25.80
2022-09-22T13:09:29.933Z,25.70
2022-09-22T13:12:24.432Z,24.00
2022-09-22T13:15:01.960Z,24.00
2022-09-22T13:17:43.468Z,25.30
2022-09-22T13:20:26.558Z,24.60
2022-09-22T13:23:05.408Z,25.00
2022-09-22T13:25:33.280Z,25.00
2022-09-22T13:28:14.313Z,23.90
2022-09-22T13:30:44.381Z,24.60
2022-09-22T13:33:23.198Z,24.50
2022-09-22T13:35:56.756Z,24.00
2022-09-22T13:38:26.325Z,24.00
2022-09-22T13:40:54.246Z,24.30
2022-09-22T13:43:29.347Z,24.70
2022-09-22T13:45:59.731Z,24.50
2022-09-22T13:48:32.611Z,23.80
2022-09-22T13:51:03.616Z,24.60
2022-09-22T13:53:33.451Z,23.90
2022-09-22T13:56:01.637Z,23.80
2022-09-22T13:58:36.368Z,24.00
2022-09-22T14:01:13.852Z,24.00
2022-09-22T14:03:42.649Z,23.50
2022-09-22T14:06:14.218Z,23.10
2022-09-22T14:08:45.401Z,23.40
2022-09-22T14:11:16.979Z,23.10
2022-09-22T14:13:57.590Z,23.40
2022-09-22T14:16:29.941Z,23.10
2022-09-22T14:19:04.327Z,23.80
2022-09-22T14:21:33.022Z,23.60
2022-09-22T14:24:02.767Z,23.50
2022-09-22T14:26:35.947Z,22.40
2022-09-22T14:29:16.137Z,23.20
2022-09-22T14:31:47.742Z,23.40
2022-09-22T14:34:20.004Z,22.90
2022-09-22T14:36:49.998Z,23.10
2022-09-22T14:39:22.334Z,23.40
2022-09-22T14:41:58.912Z,23.40
2022-09-22T14:44:41.375Z,23.20
2022-09-22T14:47:26.877Z,24.20
2022-09-22T14:50:09.395Z,23.60
2022-09-22T14:52:40.420Z,23.50
2022-09-22T14:55:21.223Z,24.30
2022-09-22T14:57:50.487Z,24.60
2022-09-22T15:00:38.731Z,25.20
2022-09-22T15:03:17.269Z,26.00
2022-09-22T15:05:45.885Z,28.10
2022-09-22T15:08:18.661Z,29.30
2022-09-22T15:10:56.036Z,30.00
2022-09-22T15:13:39.899Z,31.30
2022-09-22T15:16:28.357Z,32.20
2022-09-22T15:18:57.593Z,33.00
2022-09-22T15:21:29.087Z,33.30
2022-09-22T15:23:59.127Z,33.50
2022-09-22T15:26:29.013Z,34.80
2022-09-22T15:29:01.757Z,35.30
2022-09-22T15:31:30.673Z,36.10
2022-09-22T15:34:02.977Z,36.40
2022-09-22T15:36:32.805Z,37.30
2022-09-22T15:39:07.418Z,38.30
2022-09-22T15:41:35.519Z,39.10
2022-09-22T15:44:04.227Z,39.60
2022-09-22T15:46:35.153Z,40.20
2022-09-22T15:49:08.787Z,39.20
2022-09-22T15:51:36.704Z,39.30
2022-09-22T15:54:07.179Z,39.30
2022-09-22T15:56:35.037Z,39.30
2022-09-22T15:59:03.293Z,40.20
2022-09-22T16:01:31.118Z,41.10
2022-09-22T16:04:00.129Z,40.70
2022-09-22T16:06:29.702Z,41.20
2022-09-22T16:08:58.355Z,41.50
2022-09-22T16:11:29.594Z,41.50
2022-09-22T16:14:00.491Z,41.10
2022-09-22T16:16:29.399Z,41.30
2022-09-22T16:18:58.439Z,41.30
2022-09-22T16:21:29.230Z,41.70
2022-09-22T16:24:03.606Z,42.00
2022-09-22T16:26:33.384Z,42.40
2022-09-22T16:29:01.743Z,42.80
2022-09-22T16:31:29.882Z,43.40
2022-09-22T16:34:00.304Z,43.40
2022-09-22T16:36:29.986Z,43.90
2022-09-22T16:39:00.199Z,44.20
2022-09-22T16:41:29.925Z,44.60
2022-09-22T16:43:58.922Z,45.00
2022-09-22T16:46:28.298Z,45.40
2022-09-22T16:48:56.844Z,45.60
2022-09-22T16:51:24.756Z,46.20
2022-09-22T16:53:52.744Z,46.30
2022-09-22T16:56:23.318Z,46.80
2022-09-22T16:58:51.773Z,46.90
2022-09-22T17:01:20.456Z,47.40
2022-09-22T17:03:50.266Z,47.30
2022-09-22T17:06:23.023Z,47.80
2022-09-22T17:08:52.833Z,48.90
2022-09-22T17:11:29.256Z,48.80
2022-09-22T17:14:01.261Z,49.30
2022-09-22T17:16:30.738Z,50.00
2022-09-22T17:19:02.311Z,51.80
2022-09-22T17:21:34.053Z,51.60
2022-09-22T17:24:03.861Z,51.60
2022-09-22T17:26:34.635Z,52.20
2022-09-22T17:29:03.116Z,52.50
2022-09-22T17:31:32.234Z,52.70
2022-09-22T17:34:00.295Z,53.20
2022-09-22T17:36:29.431Z,53.40
2022-09-22T17:38:58.980Z,53.80
2022-09-22T17:41:29.577Z,54.30
2022-09-22T17:44:00.915Z,55.50
2022-09-22T17:46:30.905Z,56.00
2022-09-22T17:49:17.101Z,56.90
2022-09-22T17:52:04.022Z,57.30
2022-09-22T17:54:51.064Z,57.50
2022-09-22T17:57:20.323Z,58.50
2022-09-22T17:59:50.153Z,58.90
2022-09-22T18:02:20.454Z,59.10
2022-09-22T18:04:48.927Z,59.80
2022-09-22T18:07:18.506Z,59.90
2022-09-22T18:09:48.099Z,60.40
2022-09-22T18:12:21.342Z,60.90
2022-09-22T18:14:52.118Z,60.60
2022-09-22T18:17:22.911Z,61.40
2022-09-22T18:19:50.744Z,61.50
2022-09-22T18:22:21.004Z,61.90
2022-09-22T18:24:50.367Z,62.40
2022-09-22T18:27:19.146Z,62.60
2022-09-22T18:29:48.786Z,63.90
2022-09-22T18:32:19.622Z,64.80
2022-09-22T18:34:48.231Z,64.70
2022-09-22T18:37:16.159Z,66.40
2022-09-22T18:39:45.513Z,65.80
2022-09-22T18:42:13.972Z,66.20
2022-09-22T18:44:42.359Z,66.60
2022-09-22T18:47:14.223Z,67.00
2022-09-22T18:49:44.854Z,67.60
2022-09-22T18:52:12.706Z,68.20
2022-09-22T18:54:40.598Z,68.60
2022-09-22T18:57:12.174Z,69.50
2022-09-22T18:59:40.542Z,69.80
2022-09-22T19:02:11.416Z,70.20
2022-09-22T19:04:39.879Z,70.60
2022-09-22T19:07:27.419Z,71.00
2022-09-22T19:09:55.282Z,71.70
2022-09-22T19:12:23.144Z,72.00
2022-09-22T19:14:54.502Z,72.50
2022-09-22T19:17:24.333Z,72.90
2022-09-22T19:19:52.310Z,73.80
2022-09-22T19:22:23.172Z,74.20
2022-09-22T19:24:53.432Z,74.60
2022-09-22T19:27:22.938Z,75.90
2022-09-22T19:29:51.771Z,76.70
2022-09-22T19:32:19.615Z,77.00
2022-09-22T19:34:47.535Z,77.50
2022-09-22T19:37:15.596Z,78.30
2022-09-22T19:39:44.808Z,78.30
2022-09-22T19:42:12.667Z,78.70
2022-09-22T19:44:41.227Z,79.40
2022-09-22T19:47:09.025Z,79.50
2022-09-22T19:49:37.156Z,80.10
2022-09-22T19:52:05.119Z,80.30
2022-09-22T19:54:32.997Z,80.80
2022-09-22T19:57:02.338Z,80.90
2022-09-22T19:59:30.181Z,81.80
2022-09-22T20:01:58.049Z,82.90
2022-09-22T20:04:25.911Z,82.90
2022-09-22T20:06:53.734Z,83.40
2022-09-22T20:09:21.635Z,83.80
2022-09-22T20:11:52.239Z,84.00
2022-09-22T20:14:20.491Z,84.30
2022-09-22T20:16:49.089Z,85.50
2022-09-22T20:19:17.136Z,85.60
2022-09-22T20:21:46.448Z,86.10
2022-09-22T20:24:16.244Z,86.40
2022-09-22T20:26:45.772Z,87.10
2022-09-22T20:29:15.137Z,87.20
2022-09-22T20:31:44.735Z,87.20
2022-09-22T20:34:15.398Z,88.30
2022-09-22T20:36:44.140Z,88.10
2022-09-22T20:39:14.871Z,89.00
2022-09-22T20:41:44.026Z,89.10
2022-09-22T20:44:14.513Z,89.60
2022-09-22T20:46:44.285Z,89.60
2022-09-22T20:49:14.006Z,90.00
2022-09-22T20:51:42.517Z,90.10
2022-09-22T20:54:10.640Z,90.30
2022-09-22T20:56:42.666Z,90.70
2022-09-22T20:59:11.011Z,90.70
2022-09-22T21:01:39.016Z,90.80
2022-09-22T21:04:11.815Z,90.90
2022-09-22T21:06:42.127Z,91.40
2022-09-22T21:09:27.803Z,91.20
2022-09-22T21:11:56.506Z,91.70
2022-09-22T21:14:24.829Z,91.80
2022-09-22T21:16:52.767Z,92.00
2022-09-22T21:19:22.112Z,92.00
2022-09-22T21:21:50.059Z,92.30
2022-09-22T21:24:18.110Z,92.70
2022-09-22T21:26:46.074Z,92.20
2022-09-22T21:29:14.068Z,92.50
2022-09-22T21:31:42.113Z,93.10
2022-09-22T21:34:10.564Z,93.00
2022-09-22T21:36:39.925Z,93.10
2022-09-22T21:39:07.895Z,93.40
2022-09-22T21:41:35.921Z,93.30
2022-09-22T21:44:05.110Z,93.30
2022-09-22T21:46:35.993Z,93.40
2022-09-22T21:49:06.176Z,93.60
2022-09-22T21:51:36.404Z,93.70
2022-09-22T21:54:07.117Z,93.50
2022-09-22T21:56:35.608Z,93.70
2022-09-22T21:59:03.849Z,93.90
2022-09-22T22:01:33.827Z,93.80
2022-09-22T22:04:02.818Z,94.00
2022-09-22T22:06:32.478Z,94.00
2022-09-22T22:09:04.080Z,94.00
2022-09-22T22:11:35.172Z,94.00
2022-09-22T22:14:04.324Z,94.40
2022-09-22T22:16:34.006Z,94.60
2022-09-22T22:19:02.156Z,94.30
2022-09-22T22:21:31.883Z,94.50
2022-09-22T22:24:21.898Z,94.50
2022-09-22T22:26:53.159Z,94.70
2022-09-22T22:29:22.720Z,94.90
2022-09-22T22:31:51.809Z,94.80
2022-09-22T22:34:21.861Z,95.10
2022-09-22T22:36:50.363Z,95.30
2022-09-22T22:39:18.221Z,95.30
2022-09-22T22:41:46.474Z,95.50
2022-09-22T22:44:17.892Z,95.30
2022-09-22T22:46:46.781Z,95.70
2022-09-22T22:49:14.628Z,95.80
2022-09-22T22:51:43.727Z,95.80
2022-09-22T22:54:12.162Z,96.00
2022-09-22T22:56:42.330Z,96.00
2022-09-22T22:59:10.600Z,96.20
2022-09-22T23:01:40.332Z,96.70
2022-09-22T23:04:11.155Z,96.50
2022-09-22T23:06:43.618Z,96.50
2022-09-22T23:09:14.438Z,96.70
2022-09-22T23:11:43.524Z,96.60
2022-09-22T23:14:12.889Z,96.80
2022-09-22T23:16:46.380Z,97.00
2022-09-22T23:19:16.705Z,97.10
2022-09-22T23:21:44.905Z,97.40
2022-09-22T23:24:15.978Z,97.50
2022-09-22T23:26:43.985Z,97.60
2022-09-22T23:29:11.834Z,97.40
2022-09-22T23:31:39.788Z,97.80
2022-09-22T23:34:08.985Z,98.20
2022-09-22T23:36:37.012Z,98.40
2022-09-22T23:39:05.195Z,98.20
2022-09-22T23:41:34.721Z,98.40
2022-09-22T23:44:03.475Z,99.00
2022-09-22T23:46:31.943Z,99.10
2022-09-22T23:49:00.678Z,99.20
2022-09-22T23:51:29.921Z,99.30
2022-09-22T23:53:58.530Z,99.20
2022-09-22T23:56:26.605Z,99.50
2022-09-22T23:58:54.551Z,99.70
